Weather observations for the past three days for
Oscoda, Oscoda-Wurtsmith Airport
Imperial (Metric)
Date Time (edt) Wind (mph) Vis. (mi.) Weather Sky Cond. Temperature (ºF) Relative Humidity Wind Chill (°F) Heat Index (°F) Pressure Precipitation (in)
Air Dwpt 6 hour altimeter (in) sea level (mb) 1 hr 3 hr 6 hr
Max. Min.
06 13:55 SE 13 10.00 Overcast OVC065 42.8 24.8 50.5 33.3 49% 37 29.89 0.0
06 13:35 SE 13 10.00 Mostly Cloudy BKN065 44.6 24.8 46% 39 29.89 0.0
06 13:15 E 10 10.00 Mostly Cloudy BKN065 42.8 24.8 49% 38 29.89 0.0
06 12:55 E 12 10.00 Overcast OVC065 44.6 26.6 49% 39 29.89 0.0
06 12:35 E 8 10.00 Mostly Cloudy BKN065 44.6 28.4 53% 41 29.89 0.0
06 12:15 Vrbl 7 G 17 10.00 Mostly Cloudy BKN055 50 21.2 32% 48 29.89 0.0
06 11:55 NW 12 10.00 Overcast OVC055 48.2 21.2 34% 44 29.89 0.0
06 11:35 N 10 10.00 Overcast BKN055 OVC070 46.4 21.2 37% 42 29.89 0.0
06 11:15 NW 9 G 21 10.00 Partly Cloudy SCT055 SCT070 48.2 23 37% 45 29.89 0.0
06 10:55 NW 12 10.00 Partly Cloudy SCT070 46.4 23 40% 42 29.89 0.0
06 10:35 NW 10 10.00 Overcast OVC070 44.6 23 43% 40 29.89 0.0
06 10:15 N 9 10.00 Overcast OVC070 42.8 24.8 49% 38 29.89 0.0
06 09:55 NW 14 10.00 Overcast OVC070 42.8 24.8 49% 36 29.89 0.0
06 09:35 NW 10 10.00 Overcast OVC070 41 24.8 53% 35 29.89 0.0
06 09:15 N 8 10.00 Overcast OVC070 39.2 26.6 61% 34 29.88 0.0
06 08:55 N 9 10.00 Overcast OVC070 37.4 26.6 65% 31 29.88 0.0
06 08:35 NW 7 10.00 Overcast OVC070 37.4 28.4 70% 33 29.87 0.0
06 08:15 NW 3 10.00 Overcast FEW050 OVC070 35.6 28.4 75% 29.87 0.0
06 07:55 NW 1 10.00 Overcast BKN050 OVC070 33.8 28.4 35.2 28.9 81% 29.87 0.0
06 07:35 SW 2 10.00 Overcast FEW042 OVC050 32 28.4 87% 29.87 0.0
06 07:15 SW 3 10.00 Overcast SCT042 OVC050 30.2 28.4 93% 29.86 0.0
06 06:55 W 2 10.00 Mostly Cloudy BKN050 30.2 26.6 86% 29.84 0.0
06 06:35 NW 2 10.00 A Few Clouds FEW050 28.4 24.8 86% 29.83 0.0
06 06:15 N 3 10.00 Fair CLR 30.2 26.6 86% 29.83 0.0
06 05:55 N 3 10.00 Fair CLR 30.2 26.6 86% 29.83 0.0
06 05:35 N 5 10.00 Fair CLR 30.2 26.6 86% 26 29.83 0.0
06 05:15 N 5 10.00 Fair CLR 30.2 26.6 86% 26 29.83 0.0
06 04:55 N 5 10.00 Fair CLR 32 26.6 80% 28 29.83 0.0
06 04:35 N 6 10.00 Fair CLR 32 26.6 80% 27 29.83 0.0
06 04:15 N 7 10.00 Fair CLR 32 26.6 80% 26 29.82 0.0
06 03:55 N 5 10.00 Fair CLR 32 28.4 87% 28 29.82 0.0
06 03:35 N 5 10.00 Fair CLR 32 28.4 87% 28 29.82 0.0
06 03:15 N 5 10.00 Fair CLR 33.8 28.4 81% 30 29.82 0.0
06 02:55 N 6 10.00 Fair CLR 33.8 28.4 81% 29 29.83 0.0
06 02:35 N 7 10.00 Fair CLR 33.8 28.4 81% 28 29.82 0.0
06 02:15 N 7 10.00 Fair CLR 35.6 30.2 81% 31 29.83 0.0
06 01:55 N 8 10.00 Fair CLR 35.6 30.2 44.2 34.9 81% 30 29.82 0.0
06 01:35 N 7 10.00 Fair CLR 35.6 30.2 81% 31 29.82 0.0
06 01:15 N 7 10.00 Fair CLR 35.6 32 87% 31 29.82 0.0
06 00:55 N 7 10.00 Fair CLR 35.6 32 87% 31 29.82 0.0
06 00:35 N 6 10.00 Fair CLR 37.4 32 81% 33 29.81 0.0
06 00:15 N 9 10.00 Fair CLR 39.2 32 75% 34 29.81 0.0
05 23:55 N 6 10.00 Fair CLR 37.4 30.2 75% 33 29.8 0.0
05 23:35 Vrbl 6 10.00 Fair CLR 41 32 70% 38 29.8 0.0
05 23:15 NE 7 10.00 Fair CLR 41 32 70% 37 29.79 0.0
05 22:55 NE 7 10.00 Fair CLR 39.2 30.2 70% 35 29.8 0.0
05 22:35 NE 7 10.00 Fair CLR 39.2 30.2 70% 35 29.79 0.0
05 22:15 NE 7 10.00 Fair CLR 39.2 30.2 70% 35 29.78 0.0
05 21:55 E 6 10.00 Fair CLR 39.2 30.2 70% 36 29.78 0.0
05 21:35 E 6 10.00 Fair CLR 41 30.2 66% 38 29.77 0.0
05 21:15 NE 7 10.00 Fair CLR 39.2 30.2 70% 35 29.76 0.0
05 20:55 E 6 10.00 Fair CLR 41 30.2 66% 38 29.76 0.0
05 20:35 E 7 10.00 Fair CLR 41 30.2 66% 37 29.76 0.0
05 20:15 NE 12 10.00 Fair CLR 42.8 30.2 61% 37 29.75 0.0
05 19:55 E 12 10.00 Fair CLR 44.6 30.2 61.5 43.9 57% 39 29.75 0.0
05 19:35 NE 12 10.00 Fair CLR 44.6 32 61% 39 29.74 0.0
05 19:15 E 13 10.00 Fair CLR 44.6 32 61% 39 29.73 0.0
05 18:55 E 13 10.00 Fair CLR 44.6 32 61% 39 29.74 0.0
05 18:35 E 14 10.00 Fair CLR 44.6 32 61% 39 29.74 0.0
05 18:15 E 16 10.00 Fair CLR 44.6 32 61% 38 29.74 0.0
05 17:55 E 13 10.00 Fair CLR 46.4 32 57% 41 29.74 0.0
05 17:35 E 16 10.00 Fair CLR 44.6 32 61% 38 29.73 0.0
05 17:15 E 14 10.00 Fair CLR 46.4 32 57% 41 29.74 0.0
05 16:55 E 17 10.00 Fair CLR 46.4 32 57% 40 29.73 0.0
05 16:35 E 15 10.00 Fair CLR 46.4 33.8 62% 41 29.72 0.0
05 16:15 E 16 10.00 A Few Clouds FEW080 48.2 35.6 62% 43 29.71 0.0
05 15:55 E 15 10.00 Partly Cloudy SCT080 50 35.6 58% 45 29.7 0.0
05 15:35 E 16 10.00 Mostly Cloudy BKN080 46.4 35.6 66% 40 29.7 0.0
05 15:15 E 20 10.00 Partly Cloudy SCT080 48.2 35.6 62% 42 29.7 0.0
05 14:55 E 17 10.00 Mostly Cloudy BKN080 50 35.6 58% 45 29.68 0.0
05 14:35 W 12 G 28 10.00 Overcast BKN070 OVC085 60.8 26.6 27% 29.67 0.0
05 14:15 W 9 G 22 10.00 Mostly Cloudy BKN070 BKN085 59 24.8 27% 29.67 0.0
05 13:55 W 9 G 25 10.00 A Few Clouds FEW075 FEW080 59 26.6 60.1 46.6 29% 29.66 0.0
05 13:35 W 18 G 24 10.00 A Few Clouds FEW065 59 28.4 31% 29.67 0.0
05 13:15 W 15 G 24 10.00 A Few Clouds FEW065 59 26.6 29% 29.67 0.0
05 12:55 NW 15 G 22 10.00 Fair CLR 59 28.4 31% 29.66 0.0
05 12:35 W 14 G 25 10.00 Partly Cloudy SCT055 57.2 28.4 33% 29.67 0.0
05 12:15 W 17 G 26 10.00 Mostly Cloudy BKN055 57.2 28.4 33% 29.67 0.0
05 11:55 SW 7 G 18 10.00 Mostly Cloudy BKN055 55.4 28.4 36% 29.67 0.0
05 11:35 W 10 G 23 10.00 Mostly Cloudy BKN055 BKN065 55.4 28.4 36% 29.68 0.0
05 11:15 SW 9 10.00 Mostly Cloudy BKN055 BKN065 53.6 28.4 38% 29.68 0.0
05 10:55 W 15 G 21 10.00 Overcast OVC055 51.8 28.4 41% 29.67 0.0
05 10:35 W 18 10.00 Overcast OVC055 51.8 28.4 41% 29.66 0.0
05 10:15 W 17 10.00 Overcast OVC055 51.8 30.2 44% 29.66 0.0
05 09:55 W 9 G 17 10.00 Mostly Cloudy BKN055 50 28.4 43% 47 29.65 0.0
05 09:35 W 12 G 18 10.00 Mostly Cloudy BKN055 50 28.4 43% 46 29.64 0.0
05 09:15 W 7 10.00 Mostly Cloudy BKN065 50 30.2 47% 48 29.63 0.0
05 08:55 W 9 10.00 Overcast OVC050 48.2 30.2 50% 45 29.64 0.0
05 08:35 W 7 10.00 Overcast OVC050 46.4 30.2 53% 43 29.64 0.0
05 08:15 NW 7 10.00 Overcast OVC050 46.4 32 57% 43 29.63 0.0
05 07:55 NW 8 10.00 Overcast OVC048 46.4 32 48.2 44.6 57% 43 29.63 0.0
05 07:35 NW 6 10.00 Overcast OVC048 46.4 32 57% 44 29.61 0.0
05 07:15 NW 7 10.00 Overcast OVC048 46.4 32 57% 43 29.6 0.0
05 06:55 NW 7 10.00 Overcast OVC048 46.4 32 57% 43 29.59 0.0
05 06:35 NW 9 10.00 Overcast OVC046 46.4 32 57% 42 29.58 0.0
05 06:15 NW 9 10.00 Overcast OVC046 46.4 32 57% 42 29.57 0.0
05 05:55 NW 7 10.00 Overcast OVC046 46.4 32 57% 43 29.56 0.0
05 05:35 NW 10 G 16 10.00 Overcast OVC046 46.4 32 57% 42 29.56 0.0
05 05:15 N 9 10.00 Overcast OVC046 46.4 33.8 62% 42 29.54 0.0
05 04:55 N 9 10.00 Overcast OVC046 46.4 33.8 62% 42 29.55 0.0
05 04:35 NW 5 10.00 Overcast OVC044 46.4 35.6 66% 45 29.54 0.0
05 04:15 NW 6 10.00 Mostly Cloudy BKN044 44.6 37.4 76% 42 29.54 0.0
05 03:55 NW 3 10.00 Partly Cloudy SCT040 46.4 37.4 71% 29.53 0.0
05 03:35 NW 9 10.00 Mostly Cloudy BKN036 46.4 37.4 71% 42 29.53 0.0
05 03:15 N 7 10.00 A Few Clouds FEW036 46.4 37.4 71% 43 29.51 0.0
05 02:55 N 10 10.00 A Few Clouds FEW085 FEW120 46.4 37.4 71% 42 29.51 0.0
05 02:35 N 10 10.00 Mostly Cloudy FEW055 BKN085 BKN120 48.2 37.4 66% 44 29.51 0.0
05 02:15 NE 9 10.00 Overcast FEW029 SCT070 OVC085 48.2 39.2 71% 45 29.52 0.0
05 01:55 N 9 10.00 Mostly Cloudy SCT029 SCT060 BKN070 46.4 39.2 71.8 47.5 76% 42 29.51 0.0
05 01:35 N 7 10.00 Mostly Cloudy BKN060 BKN070 BKN085 48.2 41 76% 46 29.51 0.0
05 01:15 N 12 10.00 Mostly Cloudy FEW014 SCT060 BKN080 48.2 41 76% 44 29.5 0.0
05 00:55 N 9 10.00 Mostly Cloudy FEW014 BKN080 48.2 42.8 82% 45 29.49 0.0
05 00:35 N 10 10.00 Overcast OVC090 50 44.6 82% 46 29.47 0.0
05 00:15 N 13 10.00 Overcast OVC100 50 46.4 88% 46 29.45 0.0
04 23:55 NE 9 10.00 Overcast OVC100 50 46.4 88% 47 29.45 0.0
04 23:35 NE 8 10.00 Mostly Cloudy BKN110 48.2 46.4 94% 45 29.44 0.0
04 23:15 NE 8 10.00 Mostly Cloudy FEW075 SCT100 BKN120 50 46.4 88% 47 29.44 0.0
04 22:55 E 13 10.00 Light Rain SCT075 BKN090 OVC110 51.8 46.4 82% 29.41 0.0
04 22:35 E 7 10.00 Overcast OVC090 53.6 44.6 72% 29.44 0.0
04 22:15 E 13 G 20 10.00 Overcast OVC090 55.4 41 59% 29.43 0.0
04 21:55 Vrbl 2 10.00 Overcast OVC100 66.2 37.4 35% 29.41 0.0
04 21:35 S 6 10.00 Mostly Cloudy BKN100 68 35.6 30% 29.38 0.0
04 21:15 S 12 10.00 Fair CLR 68 35.6 30% 29.37 0.0
04 21:05 SW 12 0.00 NULL NULL 0 0 0% 29.37 0.0
04 20:35 SW 16 G 20 10.00 Fair CLR 69.8 33.8 27% 29.36 0.0
04 20:15 SW 15 G 24 10.00 Fair CLR 69.8 33.8 27% 29.37 0.0
04 19:55 SW 23 G 30 10.00 Fair and Breezy CLR 71.6 32 78.1 71.2 23% 29.36 0.0
04 19:35 SW 15 G 23 10.00 Fair CLR 71.6 32 23% 29.37 0.0
04 19:15 SW 25 G 36 10.00 Fair and Breezy CLR 73.4 30.2 20% 29.37 0.0
04 18:55 SW 26 G 32 10.00 Fair and Windy CLR 73.4 30.2 20% 29.37 0.0
04 18:35 SW 18 G 31 10.00 Fair CLR 73.4 30.2 20% 29.37 0.0
04 18:15 SW 26 G 35 10.00 Fair and Windy CLR 75.2 30.2 19% 76 29.38 0.0
04 17:55 SW 22 G 26 10.00 Fair and Breezy CLR 75.2 30.2 19% 76 29.37 0.0
04 17:35 SW 30 G 37 10.00 Fair and Windy CLR 75.2 28.4 18% 76 29.37 0.0
04 17:15 SW 31 10.00 Fair and Windy CLR 75.2 28.4 18% 76 29.38 0.0
04 16:55 SW 29 G 37 10.00 Fair and Windy CLR 77 30.2 18% 77 29.38 0.0
04 16:35 SW 30 G 37 10.00 Fair and Windy CLR 77 30.2 18% 77 29.39 0.0
04 16:15 SW 28 G 43 10.00 Fair and Windy CLR 77 30.2 18% 77 29.39 0.0
04 15:55 W 28 G 39 10.00 Fair and Windy CLR 77 32 19% 77 29.39 0.0
04 15:35 W 29 G 39 10.00 Fair and Windy CLR 77 32 19% 77 29.4 0.0
04 15:15 SW 26 G 41 10.00 Fair and Windy CLR 77 32 19% 77 29.4 0.0
04 14:55 SW 25 G 38 10.00 Fair and Breezy CLR 75.2 32 21% 76 29.4 0.0
04 14:35 SW 20 G 36 10.00 Fair CLR 77 33.8 21% 77 29.41 0.0
04 14:15 SW 15 G 23 10.00 Fair CLR 73.4 41 31% 29.42 0.0
04 13:55 S 21 G 29 10.00 Fair and Breezy CLR 71.6 42.8 71.8 47.7 36% 29.42 0.0
04 13:35 S 18 G 25 10.00 Fair CLR 69.8 44.6 40% 29.44 0.0
04 13:15 S 17 G 22 10.00 Fair CLR 69.8 44.6 40% 29.45 0.0
04 12:55 SW 17 G 24 10.00 Fair CLR 69.8 44.6 40% 29.46 0.0
04 12:35 SW 15 G 30 10.00 Fair CLR 69.8 42.8 38% 29.47 0.0
04 12:15 SW 22 G 31 10.00 Fair and Breezy CLR 69.8 42.8 38% 29.48 0.0
04 11:55 SW 16 G 22 10.00 Fair CLR 68 44.6 43% 29.5 0.0
04 11:35 SW 16 G 21 10.00 Fair CLR 66.2 44.6 46% 29.5 0.0
04 11:15 S 15 10.00 Fair CLR 62.6 46.4 56% 29.51 0.0
04 10:55 SW 14 10.00 Fair CLR 62.6 44.6 52% 29.52 0.0
04 10:35 SW 14 10.00 Fair CLR 60.8 44.6 55% 29.52 0.0
04 10:15 S 14 10.00 Fair CLR 59 44.6 59% 29.53 0.0
04 09:55 SW 12 10.00 Fair CLR 57.2 44.6 63% 29.54 0.0
04 09:35 SW 13 10.00 Fair CLR 55.4 44.6 67% 29.54 0.0
04 09:15 SW 15 10.00 Fair CLR 53.6 44.6 72% 29.54 0.0
04 08:55 SW 14 10.00 Fair CLR 51.8 42.8 72% 29.55 0.0
04 08:35 SW 14 10.00 Fair CLR 50 42.8 76% 45 29.56 0.0
04 08:15 SW 15 10.00 Fair CLR 48.2 42.8 82% 43 29.56 0.0
04 07:55 SW 12 10.00 Fair CLR 48.2 42.8 49.5 39.6 82% 44 29.57 0.0
04 07:35 SW 9 10.00 Fair CLR 46.4 42.8 87% 42 29.56 0.0
04 07:15 SW 9 10.00 Fair CLR 44.6 41 87% 40 29.56 0.0
04 06:55 SW 9 10.00 Fair CLR 42.8 41 93% 38 29.56 0.0
04 06:35 SW 9 10.00 Fair CLR 42.8 39.2 87% 38 29.57 0.0
04 06:15 SW 9 10.00 Fair CLR 44.6 41 87% 40 29.57 0.0
04 05:55 SW 7 10.00 Fair CLR 42.8 39.2 87% 39 29.58 0.0
04 05:35 SW 5 10.00 Fair CLR 42.8 39.2 87% 41 29.59 0.0
04 05:15 SW 5 10.00 Fair CLR 42.8 39.2 87% 41 29.59 0.0
04 04:55 SW 7 10.00 Fair CLR 44.6 41 87% 41 29.59 0.0
04 04:35 SW 8 10.00 Fair CLR 44.6 41 87% 41 29.6 0.0
04 04:15 SW 10 10.00 Fair CLR 46.4 41 82% 42 29.6 0.0
04 03:55 SW 12 10.00 Fair CLR 46.4 41 82% 42 29.6 0.0
04 03:35 SW 10 10.00 Fair CLR 46.4 41 82% 42 29.61 0.0
04 03:15 SW 13 10.00 Fair CLR 46.4 41 82% 41 29.61 0.0
04 02:55 SW 12 10.00 Fair CLR 48.2 42.8 82% 44 29.61 0.0
04 02:35 SW 15 G 20 10.00 Fair CLR 48.2 42.8 82% 43 29.61 0.0
04 02:15 SW 12 10.00 Fair CLR 48.2 41 76% 44 29.61 0.0
04 01:55 SW 13 10.00 Fair CLR 48.2 41 56.3 48.2 76% 43 29.61 0.0
04 01:35 SW 16 10.00 Fair CLR 48.2 41 76% 43 29.62 0.0
04 01:15 SW 14 10.00 A Few Clouds FEW075 50 41 71% 45 29.63 0.0
04 00:55 SW 12 10.00 A Few Clouds FEW100 48.2 41 76% 44 29.63 0.0
04 00:35 SW 13 10.00 Light Rain FEW070 BKN100 BKN120 50 41 71% 46 29.63 0.0
04 00:15 SW 15 10.00 Mostly Cloudy BKN100 BKN110 51.8 39.2 62% 29.64 0.0
03 23:55 SW 15 10.00 Mostly Cloudy SCT090 BKN110 51.8 39.2 62% 29.65 0.0
03 23:35 SW 15 10.00 A Few Clouds FEW090 51.8 37.4 58% 29.64 0.0
03 23:15 SW 18 10.00 A Few Clouds FEW110 51.8 37.4 58% 29.64 0.0
03 22:55 SW 14 10.00 Partly Cloudy SCT110 51.8 37.4 58% 29.65 0.0
03 22:35 SW 15 10.00 Fair CLR 53.6 37.4 54% 29.65 0.0
03 22:15 SW 16 10.00 Fair CLR 53.6 39.2 58% 29.66 0.0
03 21:55 SW 14 10.00 A Few Clouds FEW090 53.6 39.2 58% 29.66 0.0
03 21:35 SW 16 10.00 A Few Clouds FEW090 53.6 37.4 54% 29.66 0.0
03 21:15 SW 17 10.00 Fair CLR 53.6 39.2 58% 29.66 0.0
03 20:55 SW 20 G 23 10.00 A Few Clouds FEW100 53.6 39.2 58% 29.65 0.0
03 20:35 SW 16 G 23 10.00 Mostly Cloudy BKN100 55.4 39.2 55% 29.65 0.0
03 20:15 SW 22 G 28 10.00 Partly Cloudy and Breezy SCT100 55.4 39.2 55% 29.65 0.0
03 19:55 SW 21 G 29 10.00 A Few Clouds and Breezy FEW100 55.4 41 61.7 53.1 59% 29.64 0.0
03 19:35 SW 17 G 24 10.00 Partly Cloudy SCT100 55.4 42.8 63% 29.64 0.0
03 19:15 SW 21 G 28 10.00 Mostly Cloudy and Breezy FEW070 BKN100 55.4 42.8 63% 29.65 0.0
03 18:55 SW 21 10.00 Partly Cloudy and Breezy SCT070 SCT100 57.2 42.8 59% 29.65 0.0
03 18:35 SW 14 10.00 Overcast OVC075 57.2 42.8 59% 29.66 0.0
03 18:15 SW 14 10.00 Overcast OVC075 57.2 42.8 59% 29.66 0.0
03 17:55 SW 14 10.00 Overcast OVC085 55.4 42.8 63% 29.67 0.0
03 17:35 S 9 10.00 Overcast SCT055 SCT070 OVC085 55.4 42.8 63% 29.68 0.0
03 17:15 S 6 10.00 Light Rain FEW040 OVC055 55.4 41 59% 29.68 0.0
03 16:55 SW 7 10.00 Overcast FEW055 OVC065 55.4 41 59% 29.69 0.0
03 16:35 SW 7 10.00 Overcast BKN060 OVC075 57.2 39.2 51% 29.69 0.0
03 16:15 W 12 10.00 Overcast SCT065 BKN070 OVC080 55.4 41 59% 29.7 0.0
03 15:55 W 14 10.00 Overcast OVC080 55.4 39.2 55% 29.7 0.0
03 15:35 W 21 G 28 10.00 Overcast and Breezy FEW055 BKN070 OVC080 57.2 41 55% 29.71 0.0
03 15:15 W 18 10.00 Mostly Cloudy SCT060 SCT080 BKN090 59 39.2 48% 29.71 0.0
03 14:55 W 26 G 36 10.00 Overcast and Windy FEW046 BKN070 OVC120 59 39.2 48% 29.71 0.0
03 14:35 SW 25 G 33 10.00 Mostly Cloudy and Breezy BKN075 BKN100 59 41 51% 29.71 0.0
03 14:15 SW 15 10.00 Mostly Cloudy FEW075 BKN110 55.4 41 59% 29.72 0.0
Date Time (edt) Wind (mph) Vis. (mi.) Weather Sky Cond. Air Dwpt Max. Min. Relative Humidity Wind Chill (°F) Heat Index (°F) altimeter (in) sea level (mb) 1 hr 3 hr 6 hr
6 hour
Temperature (ºF) Pressure Precipitation (in)